(°C)
22°
21°
21°
20°
20°
20°
20°
(°C)
19°
19°
19°
19°
19°
19°
19°
ZSZ
Z
Z
ZJZ
ZJZ
ZJZ
ZJZ
(km/h)
11-18
9-16
7-13
5-11
4-9
4-8
3-7
(mm)
0
0
0
0
0
0
0
(%)
0
0
0
0
0
0
0

Sluneční výška

/ 30.3°
sun-icon
UV 11
05:41
20:01
Ubývající srpek (331°)
03:43
18:20

METAR pro San Diego (KSAN)

Čas Podmínky Teplota/
Rosný bod
Vítr Viditelnost Počasí Oblaky Tlak Změna Nezpracované
VFR 21.7°C / 15.6°C 280º 8kt >10km - Few Clouds 700ft
Few Clouds 5000ft
1014 - KSAN 262351Z 28008KT 10SM FEW007 FEW050 22/16 A2996 RMK AO2 SLP144 T02170156 10228 20206 56007
VFR 21.7°C / 16.1°C 310º 8kt >10km - Few Clouds 700ft
Few Clouds 5000ft
1014 - KSAN 262251Z 31008KT 8SM FEW007 FEW050 22/16 A2996 RMK AO2 SLP145 T02170161
VFR 22.2°C / 16.1°C 290º 9kt >10km - Few Clouds 700ft
Few Clouds 5000ft
1014 - KSAN 262151Z 29009KT 10SM FEW007 FEW050 22/16 A2997 RMK AO2 SLP148 T02220161
VFR 21.7°C / 15.6°C 290º 10kt >10km - Few Clouds 700ft
Few Clouds 5000ft
1015 - KSAN 262051Z 29010KT 10SM FEW007 FEW050 22/16 A2998 RMK AO2 SLP151 T02170156 58006
VFR 22.2°C / 16.1°C 300º 9kt >10km - Few Clouds 700ft
Few Clouds 5000ft
1015 - KSAN 261951Z 30009KT 10SM FEW007 FEW050 22/16 A2999 RMK AO2 SLP153 T02220161
VFR 21.7°C / 15.6°C 270º 10kt >10km - Few Clouds 700ft 1015 - KSAN 261851Z 27010KT 10SM FEW007 22/16 A2999 RMK AO2 SLP155 T02170156
VFR 21.1°C / 16.1°C 300º 7kt >10km - Few Clouds 700ft 1015 - KSAN 261751Z 30007KT 10SM FEW007 21/16 A3000 RMK AO2 SLP157 T02110161 10211 20167 55000
VFR 20°C / 15°C 300º 6kt >10km - Few Clouds 700ft 1015 - KSAN 261651Z 30006KT 10SM FEW007 20/15 A2999 RMK AO2 SLP155 T02000150
VFR 19.4°C / 15°C variable 3kt >10km - Few Clouds 700ft 1015 - KSAN 261551Z VRB03KT 9SM FEW007 19/15 A3000 RMK AO2 SLP157 T01940150
VFR 17.8°C / 15°C variable 3kt >10km - Scattered Clouds 700ft 1015 - KSAN 261451Z VRB03KT 7SM SCT007 18/15 A3000 RMK AO2 SLP157 T01780150 53012
VFR 18°C / 15°C 20º 4kt >10km - Scattered Clouds 700ft - KSAN 261446Z 02004KT 7SM SCT007 18/15 A2999 RMK AO2
IFR 16.7°C / 15°C variable 0kt 9700m Mist Vertical Visibility of 0ft. 1015 - KSAN 261351Z 00000KT 6SM BR BKN007 17/15 A2998 RMK AO2 SLP151 T01670150
IFR 16.7°C / 15.6°C variable 3kt >10km - Overcast 700ft 1014 - KSAN 261251Z VRB03KT 7SM OVC007 17/16 A2997 RMK AO2 SLP148 T01670156
IFR 17.2°C / 15.6°C 10º 5kt >10km - Overcast 700ft 1014 - KSAN 261151Z 01005KT 8SM OVC007 17/16 A2996 RMK AO2 SLP145 T01720156 10178 20172 53001
IFR 17.2°C / 16.1°C 20º 4kt >10km - Overcast 700ft 1014 - KSAN 261051Z 02004KT 8SM OVC007 17/16 A2996 RMK AO2 SLP143 T01720161
IFR 17.2°C / 16.1°C 310º 3kt >10km - Overcast 700ft - KSAN 261038Z 31003KT 8SM OVC007 17/16 A2995 RMK AO2 T01720161
IFR 17.2°C / 16.1°C variable 0kt 9700m Mist Vertical Visibility of 0ft. 1014 - KSAN 260951Z 00000KT 6SM BR OVC006 17/16 A2995 RMK AO2 SLP142 T01720161
IFR 17.8°C / 16.1°C 340º 3kt >10km - Overcast 600ft 1014 - KSAN 260851Z 34003KT 8SM OVC006 18/16 A2996 RMK AO2 SLP144 T01780161 58004
IFR 17.8°C / 16.1°C 300º 3kt >10km - Overcast 700ft 1014 - KSAN 260751Z 30003KT 9SM OVC007 18/16 A2997 RMK AO2 SLP147 T01780161 402220161
IFR 17.2°C / 16.1°C 300º 3kt >10km - Broken Clouds 700ft - KSAN 260702Z 30003KT 9SM BKN007 17/16 A2997 RMK AO2 T01720161
VFR 17.2°C / 16.1°C 300º 5kt >10km - Scattered Clouds 800ft 1014 - KSAN 260651Z 30005KT 9SM SCT008 17/16 A2997 RMK AO2 SLP148 T01720161
IFR 17.8°C / 16.1°C 300º 4kt >10km - Broken Clouds 800ft - KSAN 260643Z 30004KT 9SM BKN008 18/16 A2997 RMK AO2 T01780161
VFR 17.8°C / 16.7°C 300º 5kt >10km - Scattered Clouds 700ft - KSAN 260555Z 30005KT 8SM SCT007 18/17 A2997 RMK AO2 T01780167
IFR 17.8°C / 16.1°C 290º 6kt >10km - Broken Clouds 700ft 1014 - KSAN 260551Z 29006KT 8SM BKN007 18/16 A2997 RMK AO2 SLP147 T01780161 10222 20178 51018

VFR

21.7°C / 15.6°C

[Víc]
Vítr 280º 8kt
Viditelnost >10km
Počasí -
Oblaky Few Clouds 700ft
Few Clouds 5000ft
Tlak 1014
Změna -
Nezpracované KSAN 262351Z 28008KT 10SM FEW007 FEW050 22/16 A2996 RMK AO2 SLP144 T02170156 10228 20206 56007

VFR

21.7°C / 16.1°C

[Víc]
Vítr 310º 8kt
Viditelnost >10km
Počasí -
Oblaky Few Clouds 700ft
Few Clouds 5000ft
Tlak 1014
Změna -
Nezpracované KSAN 262251Z 31008KT 8SM FEW007 FEW050 22/16 A2996 RMK AO2 SLP145 T02170161

VFR

22.2°C / 16.1°C

[Víc]
Vítr 290º 9kt
Viditelnost >10km
Počasí -
Oblaky Few Clouds 700ft
Few Clouds 5000ft
Tlak 1014
Změna -
Nezpracované KSAN 262151Z 29009KT 10SM FEW007 FEW050 22/16 A2997 RMK AO2 SLP148 T02220161

VFR

21.7°C / 15.6°C

[Víc]
Vítr 290º 10kt
Viditelnost >10km
Počasí -
Oblaky Few Clouds 700ft
Few Clouds 5000ft
Tlak 1015
Změna -
Nezpracované KSAN 262051Z 29010KT 10SM FEW007 FEW050 22/16 A2998 RMK AO2 SLP151 T02170156 58006

VFR

22.2°C / 16.1°C

[Víc]
Vítr 300º 9kt
Viditelnost >10km
Počasí -
Oblaky Few Clouds 700ft
Few Clouds 5000ft
Tlak 1015
Změna -
Nezpracované KSAN 261951Z 30009KT 10SM FEW007 FEW050 22/16 A2999 RMK AO2 SLP153 T02220161

VFR

21.7°C / 15.6°C

[Víc]
Vítr 270º 10kt
Viditelnost >10km
Počasí -
Oblaky Few Clouds 700ft
Tlak 1015
Změna -
Nezpracované KSAN 261851Z 27010KT 10SM FEW007 22/16 A2999 RMK AO2 SLP155 T02170156

VFR

21.1°C / 16.1°C

[Víc]
Vítr 300º 7kt
Viditelnost >10km
Počasí -
Oblaky Few Clouds 700ft
Tlak 1015
Změna -
Nezpracované KSAN 261751Z 30007KT 10SM FEW007 21/16 A3000 RMK AO2 SLP157 T02110161 10211 20167 55000

VFR

20°C / 15°C

[Víc]
Vítr 300º 6kt
Viditelnost >10km
Počasí -
Oblaky Few Clouds 700ft
Tlak 1015
Změna -
Nezpracované KSAN 261651Z 30006KT 10SM FEW007 20/15 A2999 RMK AO2 SLP155 T02000150

VFR

19.4°C / 15°C

[Víc]
Vítr variable 3kt
Viditelnost >10km
Počasí -
Oblaky Few Clouds 700ft
Tlak 1015
Změna -
Nezpracované KSAN 261551Z VRB03KT 9SM FEW007 19/15 A3000 RMK AO2 SLP157 T01940150

VFR

17.8°C / 15°C

[Víc]
Vítr variable 3kt
Viditelnost >10km
Počasí -
Oblaky Scattered Clouds 700ft
Tlak 1015
Změna -
Nezpracované KSAN 261451Z VRB03KT 7SM SCT007 18/15 A3000 RMK AO2 SLP157 T01780150 53012

VFR

18°C / 15°C

[Víc]
Vítr 20º 4kt
Viditelnost >10km
Počasí -
Oblaky Scattered Clouds 700ft
Tlak
Změna -
Nezpracované KSAN 261446Z 02004KT 7SM SCT007 18/15 A2999 RMK AO2

IFR

16.7°C / 15°C

[Víc]
Vítr variable 0kt
Viditelnost 9700m
Počasí Mist
Oblaky Vertical Visibility of 0ft.
Tlak 1015
Změna -
Nezpracované KSAN 261351Z 00000KT 6SM BR BKN007 17/15 A2998 RMK AO2 SLP151 T01670150

IFR

16.7°C / 15.6°C

[Víc]
Vítr variable 3kt
Viditelnost >10km
Počasí -
Oblaky Overcast 700ft
Tlak 1014
Změna -
Nezpracované KSAN 261251Z VRB03KT 7SM OVC007 17/16 A2997 RMK AO2 SLP148 T01670156

IFR

17.2°C / 15.6°C

[Víc]
Vítr 10º 5kt
Viditelnost >10km
Počasí -
Oblaky Overcast 700ft
Tlak 1014
Změna -
Nezpracované KSAN 261151Z 01005KT 8SM OVC007 17/16 A2996 RMK AO2 SLP145 T01720156 10178 20172 53001

IFR

17.2°C / 16.1°C

[Víc]
Vítr 20º 4kt
Viditelnost >10km
Počasí -
Oblaky Overcast 700ft
Tlak 1014
Změna -
Nezpracované KSAN 261051Z 02004KT 8SM OVC007 17/16 A2996 RMK AO2 SLP143 T01720161

IFR

17.2°C / 16.1°C

[Víc]
Vítr 310º 3kt
Viditelnost >10km
Počasí -
Oblaky Overcast 700ft
Tlak
Změna -
Nezpracované KSAN 261038Z 31003KT 8SM OVC007 17/16 A2995 RMK AO2 T01720161

IFR

17.2°C / 16.1°C

[Víc]
Vítr variable 0kt
Viditelnost 9700m
Počasí Mist
Oblaky Vertical Visibility of 0ft.
Tlak 1014
Změna -
Nezpracované KSAN 260951Z 00000KT 6SM BR OVC006 17/16 A2995 RMK AO2 SLP142 T01720161

IFR

17.8°C / 16.1°C

[Víc]
Vítr 340º 3kt
Viditelnost >10km
Počasí -
Oblaky Overcast 600ft
Tlak 1014
Změna -
Nezpracované KSAN 260851Z 34003KT 8SM OVC006 18/16 A2996 RMK AO2 SLP144 T01780161 58004

IFR

17.8°C / 16.1°C

[Víc]
Vítr 300º 3kt
Viditelnost >10km
Počasí -
Oblaky Overcast 700ft
Tlak 1014
Změna -
Nezpracované KSAN 260751Z 30003KT 9SM OVC007 18/16 A2997 RMK AO2 SLP147 T01780161 402220161

IFR

17.2°C / 16.1°C

[Víc]
Vítr 300º 3kt
Viditelnost >10km
Počasí -
Oblaky Broken Clouds 700ft
Tlak
Změna -
Nezpracované KSAN 260702Z 30003KT 9SM BKN007 17/16 A2997 RMK AO2 T01720161

VFR

17.2°C / 16.1°C

[Víc]
Vítr 300º 5kt
Viditelnost >10km
Počasí -
Oblaky Scattered Clouds 800ft
Tlak 1014
Změna -
Nezpracované KSAN 260651Z 30005KT 9SM SCT008 17/16 A2997 RMK AO2 SLP148 T01720161

IFR

17.8°C / 16.1°C

[Víc]
Vítr 300º 4kt
Viditelnost >10km
Počasí -
Oblaky Broken Clouds 800ft
Tlak
Změna -
Nezpracované KSAN 260643Z 30004KT 9SM BKN008 18/16 A2997 RMK AO2 T01780161

VFR

17.8°C / 16.7°C

[Víc]
Vítr 300º 5kt
Viditelnost >10km
Počasí -
Oblaky Scattered Clouds 700ft
Tlak
Změna -
Nezpracované KSAN 260555Z 30005KT 8SM SCT007 18/17 A2997 RMK AO2 T01780167

IFR

17.8°C / 16.1°C

[Víc]
Vítr 290º 6kt
Viditelnost >10km
Počasí -
Oblaky Broken Clouds 700ft
Tlak 1014
Změna -
Nezpracované KSAN 260551Z 29006KT 8SM BKN007 18/16 A2997 RMK AO2 SLP147 T01780161 10222 20178 51018

TAF pro San Diego (KSAN)

From till


From till Wind 290º 11kt. Visibility 10km or more. Few Clouds 700ft. Few Clouds 5000ft.
From till Wind variable 4kt. Visibility 10km or more. Few Clouds 800ft.
From till Wind variable 4kt. Visibility 9700m. Mist . Broken Clouds 700ft.
Temporarly from till Visibility 1600m. Mist . Overcast 300ft.
From till Wind variable 4kt. Visibility 6400m. Mist . Overcast 500ft.
From till Wind 190º 4kt. Visibility 10km or more. Scattered Clouds 800ft. Scattered Clouds 10000ft.
From till Wind 210º 10kt. Visibility 10km or more. Few Clouds 1000ft. Scattered Clouds 10000ft.

Nezpracované: KSAN 262320Z 2700/2806 29011KT P6SM FEW007 FEW050 FM270200 VRB04KT P6SM FEW008 FM270600 VRB04KT 6SM BR BKN007 FM271100 VRB04KT 4SM BR OVC005 TEMPO 2711/2714 1SM BR OVC003 FM271500 19004KT P6SM SCT008 SCT100 FM271900 21010KT P6SM FEW010 SCT100

Radar a krátkodobá předpověď srážek pro San Diego

Mrholení
Slabé
Střední
Silné
Velmi silné
Kroupy

Značka lokality je umístněna na San Diego. Tato animace ukazuje srážky zaznamenané radarem za poslední hodinu a také 1h předpověď. Mrholení nebo slabé sněžení může být pro radar neviditelné. Intenzita srážek je barevně označena od světle modré po oranžovou.

Aktuální snímky ze satelitu pro San Diego, Spojené státy americké

Značka polohy je umístěna na San Diego. [Víc]

Satelitní snímek v reálném čase kombinuje viditelné světlo během dne s infračerveným zářením během noci. V noci není obraz tmavý, protože infračervené záření dokáže detekovat teplotní rozdíly. Nízká oblačnost a mlha se bohužel těžko odlišují od pozemních teplot, a proto mohou být během noci téměř neviditelné. Satelitní snímky z Meteosatu pro Evropu jsou aktualizovány v reálném čase každých 5 minut. Snímky z GOES-16/GOES-17 (Severní a Jižní Amerika) a Himawari (Asie) jsou aktualizovány) každých 10 minut.

Zpět nahoru